createdAt,value
2016-06-02T00:00:48.551Z,1003.78
2016-06-02T00:01:48.476Z,1003.78
2016-06-02T00:02:48.463Z,1003.81
2016-06-02T00:03:48.465Z,1003.82
2016-06-02T00:04:48.437Z,1003.83
2016-06-02T00:05:48.423Z,1003.81
2016-06-02T00:06:48.410Z,1003.82
2016-06-02T00:07:48.398Z,1003.8
2016-06-02T00:08:48.385Z,1003.8
2016-06-02T00:09:48.373Z,1003.77
2016-06-02T00:10:48.359Z,1003.76
2016-06-02T00:11:48.345Z,1003.77
2016-06-02T00:12:48.334Z,1003.76
2016-06-02T00:13:48.320Z,1003.71
2016-06-02T00:14:48.307Z,1003.71
2016-06-02T00:15:48.294Z,1003.68
2016-06-02T00:16:48.281Z,1003.71
2016-06-02T00:17:48.269Z,1003.71
2016-06-02T00:18:48.256Z,1003.7
2016-06-02T00:19:48.242Z,1003.71
2016-06-02T00:20:48.230Z,1003.7
2016-06-02T00:21:48.217Z,1003.67
2016-06-02T00:22:48.203Z,1003.66
2016-06-02T00:23:48.191Z,1003.68
2016-06-02T00:24:48.366Z,1003.7
2016-06-02T00:25:48.165Z,1003.69
2016-06-02T00:26:48.152Z,1003.73
2016-06-02T00:27:48.139Z,1003.74
2016-06-02T00:28:48.126Z,1003.74
2016-06-02T00:29:48.114Z,1003.73
2016-06-02T00:30:48.100Z,1003.76
2016-06-02T00:31:48.087Z,1003.76
2016-06-02T00:32:48.074Z,1003.78
2016-06-02T00:33:48.062Z,1003.76
2016-06-02T00:34:48.049Z,1003.74
2016-06-02T00:35:48.020Z,1003.79
2016-06-02T00:36:48.023Z,1003.78
2016-06-02T00:37:47.994Z,1003.75
2016-06-02T00:38:47.997Z,1003.74
2016-06-02T00:39:48.890Z,1003.78
2016-06-02T00:40:47.956Z,1003.79
2016-06-02T00:41:47.958Z,1003.76
2016-06-02T00:42:47.929Z,1003.78
2016-06-02T00:43:47.917Z,1003.84
2016-06-02T00:44:47.920Z,1003.79
2016-06-02T00:45:47.890Z,1003.77
2016-06-02T00:46:47.878Z,1003.77
2016-06-02T00:47:47.865Z,1003.76
2016-06-02T00:48:47.852Z,1003.77
2016-06-02T00:49:47.839Z,1003.73
2016-06-02T00:50:47.826Z,1003.72
2016-06-02T00:51:47.814Z,1003.75
2016-06-02T00:52:47.800Z,1003.75
2016-06-02T00:53:47.787Z,1003.76
2016-06-02T00:54:47.775Z,1003.74
2016-06-02T00:55:47.761Z,1003.7
2016-06-02T00:56:47.749Z,1003.82
2016-06-02T00:57:47.735Z,1003.73
2016-06-02T00:58:47.722Z,1003.74
2016-06-02T00:59:47.710Z,1003.75
2016-06-02T01:00:47.744Z,1003.72
2016-06-02T01:01:47.683Z,1003.69
2016-06-02T01:02:47.671Z,1003.72
2016-06-02T01:03:47.658Z,1003.75
2016-06-02T01:04:47.645Z,1003.72
2016-06-02T01:05:47.632Z,1003.73
2016-06-02T01:06:47.619Z,1003.72
2016-06-02T01:07:47.606Z,1003.69
2016-06-02T01:08:47.593Z,1003.68
2016-06-02T01:09:47.580Z,1003.71
2016-06-02T01:10:47.567Z,1003.74
2016-06-02T01:11:47.554Z,1003.68
2016-06-02T01:12:47.542Z,1003.69
2016-06-02T01:13:47.529Z,1003.67
2016-06-02T01:14:47.516Z,1003.67
2016-06-02T01:15:47.503Z,1003.66
2016-06-02T01:16:47.490Z,1003.63
2016-06-02T01:17:47.477Z,1003.68
2016-06-02T01:18:47.495Z,1003.67
2016-06-02T01:19:47.451Z,1003.63
2016-06-02T01:20:47.439Z,1003.64
2016-06-02T01:21:47.425Z,1003.64
2016-06-02T01:22:47.412Z,1003.64
2016-06-02T01:23:47.400Z,1003.64
2016-06-02T01:24:47.387Z,1003.62
2016-06-02T01:25:47.373Z,1003.68
2016-06-02T01:26:47.361Z,1003.68
2016-06-02T01:27:47.348Z,1003.72
2016-06-02T01:28:47.335Z,1003.76
2016-06-02T01:29:47.322Z,1003.78
2016-06-02T01:30:47.309Z,1003.72
2016-06-02T01:31:47.296Z,1003.74
2016-06-02T01:32:47.283Z,1003.68
2016-06-02T01:33:47.270Z,1003.69
2016-06-02T01:34:47.257Z,1003.7
2016-06-02T01:35:47.260Z,1003.72
2016-06-02T01:36:47.232Z,1003.74
2016-06-02T01:37:47.218Z,1003.75
2016-06-02T01:38:47.205Z,1003.7
2016-06-02T01:39:47.193Z,1003.7
2016-06-02T01:40:47.180Z,1003.7
2016-06-02T01:41:47.166Z,1003.7
2016-06-02T01:42:47.154Z,1003.77
2016-06-02T01:43:47.141Z,1003.75
2016-06-02T01:44:47.128Z,1003.8
2016-06-02T01:45:47.115Z,1003.77
2016-06-02T01:46:47.101Z,1003.77
2016-06-02T01:47:47.089Z,1003.8
2016-06-02T01:48:47.076Z,1003.72
2016-06-02T01:49:47.062Z,1003.78
2016-06-02T01:50:47.050Z,1003.79
2016-06-02T01:51:47.037Z,1003.85
2016-06-02T01:52:47.025Z,1003.84
2016-06-02T01:53:47.011Z,1003.87
2016-06-02T01:54:46.998Z,1003.92
2016-06-02T01:55:47.485Z,1003.85
2016-06-02T01:56:46.973Z,1003.84
2016-06-02T01:57:46.958Z,1003.86
2016-06-02T01:58:46.947Z,1003.86
2016-06-02T01:59:46.933Z,1003.9
2016-06-02T02:00:46.967Z,1003.87
2016-06-02T02:01:46.907Z,1003.93
2016-06-02T02:02:46.894Z,1003.94
2016-06-02T02:03:46.882Z,1003.88
2016-06-02T02:04:46.869Z,1003.88
2016-06-02T02:05:46.855Z,1003.88
2016-06-02T02:06:46.843Z,1003.86
2016-06-02T02:07:46.829Z,1003.86
2016-06-02T02:08:46.818Z,1003.91
2016-06-02T02:09:46.805Z,1003.9
2016-06-02T02:10:46.791Z,1003.86
2016-06-02T02:11:46.779Z,1003.89
2016-06-02T02:12:46.766Z,1003.9
2016-06-02T02:13:46.752Z,1003.92
2016-06-02T02:14:46.739Z,1003.88
2016-06-02T02:15:46.820Z,1003.88
2016-06-02T02:16:46.714Z,1003.9
2016-06-02T02:17:46.701Z,1003.9
2016-06-02T02:18:46.687Z,1003.89
2016-06-02T02:19:46.675Z,1003.93
2016-06-02T02:20:46.661Z,1003.92
2016-06-02T02:21:46.649Z,1003.98
2016-06-02T02:22:46.636Z,1003.89
2016-06-02T02:23:46.717Z,1003.93
2016-06-02T02:24:46.610Z,1003.93
2016-06-02T02:25:46.598Z,1003.96
2016-06-02T02:26:46.583Z,1003.97
2016-06-02T02:27:46.571Z,1003.95
2016-06-02T02:28:46.559Z,1003.96
2016-06-02T02:29:46.545Z,1003.94
2016-06-02T02:30:46.532Z,1003.92
2016-06-02T02:31:46.722Z,1003.92
2016-06-02T02:32:46.507Z,1003.95
2016-06-02T02:33:46.494Z,1003.99
2016-06-02T02:34:46.480Z,1004
2016-06-02T02:35:46.468Z,1004.02
2016-06-02T02:36:46.455Z,1004.01
2016-06-02T02:37:46.442Z,1004
2016-06-02T02:38:46.429Z,1003.99
2016-06-02T02:39:46.712Z,1004.02
2016-06-02T02:40:46.404Z,1003.97
2016-06-02T02:41:46.390Z,1004.01
2016-06-02T02:42:46.377Z,1004.04
2016-06-02T02:43:46.364Z,1004.02
2016-06-02T02:44:46.351Z,1004.04
2016-06-02T02:45:46.338Z,1004.05
2016-06-02T02:46:46.325Z,1004.02
2016-06-02T02:47:46.704Z,1004.03
2016-06-02T02:48:46.300Z,1004.05
2016-06-02T02:49:46.286Z,1004.06
2016-06-02T02:50:46.274Z,1004.07
2016-06-02T02:51:46.261Z,1004.06
2016-06-02T02:52:46.248Z,1004.08
2016-06-02T02:53:46.234Z,1004.06
2016-06-02T02:54:46.222Z,1004.08
2016-06-02T02:55:47.444Z,1004.09
2016-06-02T02:56:46.197Z,1004.06
2016-06-02T02:57:46.183Z,1004.08
2016-06-02T02:58:46.170Z,1004.09
2016-06-02T02:59:46.158Z,1004.11
2016-06-02T03:00:46.191Z,1004.1
2016-06-02T03:01:46.131Z,1004.08
2016-06-02T03:02:46.119Z,1004.09
2016-06-02T03:03:46.856Z,1004.15
2016-06-02T03:04:46.093Z,1004.15
2016-06-02T03:05:46.079Z,1004.1
2016-06-02T03:06:46.066Z,1004.17
2016-06-02T03:07:46.054Z,1004.12
2016-06-02T03:08:46.041Z,1004.15
2016-06-02T03:09:46.138Z,1004.16
2016-06-02T03:10:46.015Z,1004.16
2016-06-02T03:11:46.002Z,1004.2
2016-06-02T03:12:45.990Z,1004.18
2016-06-02T03:13:45.977Z,1004.21
2016-06-02T03:14:45.963Z,1004.18
2016-06-02T03:15:45.951Z,1004.18
2016-06-02T03:16:45.937Z,1004.21
2016-06-02T03:17:45.924Z,1004.17
2016-06-02T03:18:45.911Z,1004.18
2016-06-02T03:19:46.789Z,1004.25
2016-06-02T03:20:45.886Z,1004.18
2016-06-02T03:21:45.873Z,1004.24
2016-06-02T03:22:45.859Z,1004.26
2016-06-02T03:23:45.847Z,1004.28
2016-06-02T03:24:45.834Z,1004.32
2016-06-02T03:25:45.820Z,1004.31
2016-06-02T03:26:45.808Z,1004.3
2016-06-02T03:27:46.889Z,1004.33
2016-06-02T03:28:45.807Z,1004.32
2016-06-02T03:29:45.819Z,1004.32
2016-06-02T03:30:45.831Z,1004.3
2016-06-02T03:31:45.844Z,1004.33
2016-06-02T03:32:45.856Z,1004.35
2016-06-02T03:33:45.852Z,1004.36
2016-06-02T03:34:45.850Z,1004.35
2016-06-02T03:35:47.049Z,1004.38
2016-06-02T03:36:45.842Z,1004.39
2016-06-02T03:37:45.838Z,1004.4
2016-06-02T03:38:45.829Z,1004.42
2016-06-02T03:39:45.819Z,1004.45
2016-06-02T03:40:45.809Z,1004.46
2016-06-02T03:41:45.799Z,1004.47
2016-06-02T03:42:45.789Z,1004.45
2016-06-02T03:43:47.074Z,1004.42
2016-06-02T03:44:45.766Z,1004.48
2016-06-02T03:45:45.754Z,1004.48
2016-06-02T03:46:45.741Z,1004.5
2016-06-02T03:47:45.746Z,1004.52
2016-06-02T03:48:45.718Z,1004.53
2016-06-02T03:49:45.705Z,1004.52
2016-06-02T03:50:45.693Z,1004.57
2016-06-02T03:51:45.680Z,1004.54
2016-06-02T03:52:45.668Z,1004.56
2016-06-02T03:53:45.655Z,1004.54
2016-06-02T03:54:45.642Z,1004.51
2016-06-02T03:55:45.630Z,1004.56
2016-06-02T03:56:45.618Z,1004.56
2016-06-02T03:57:45.605Z,1004.55
2016-06-02T03:58:45.592Z,1004.58
2016-06-02T03:59:45.579Z,1004.59
2016-06-02T04:00:45.612Z,1004.66
2016-06-02T04:01:45.554Z,1004.61
2016-06-02T04:02:45.540Z,1004.64
2016-06-02T04:03:45.528Z,1004.63
2016-06-02T04:04:45.514Z,1004.64
2016-06-02T04:05:45.501Z,1004.65
2016-06-02T04:06:45.489Z,1004.67
2016-06-02T04:07:45.476Z,1004.69
2016-06-02T04:08:45.463Z,1004.72
2016-06-02T04:09:45.450Z,1004.72
2016-06-02T04:10:45.436Z,1004.73
2016-06-02T04:11:45.424Z,1004.74
2016-06-02T04:12:45.410Z,1004.73
2016-06-02T04:13:45.397Z,1004.72
2016-06-02T04:14:45.385Z,1004.7
2016-06-02T04:15:45.372Z,1004.75
2016-06-02T04:16:45.359Z,1004.73
2016-06-02T04:17:45.346Z,1004.77
2016-06-02T04:18:45.333Z,1004.79
2016-06-02T04:19:45.320Z,1004.8
2016-06-02T04:20:45.307Z,1004.82
2016-06-02T04:21:45.294Z,1004.81
2016-06-02T04:22:45.282Z,1004.82
2016-06-02T04:23:45.268Z,1004.8
2016-06-02T04:24:45.459Z,1004.81
2016-06-02T04:25:45.243Z,1004.84
2016-06-02T04:26:45.229Z,1004.84
2016-06-02T04:27:45.217Z,1004.85
2016-06-02T04:28:45.204Z,1004.82
2016-06-02T04:29:45.191Z,1004.83
2016-06-02T04:30:45.179Z,1004.8
2016-06-02T04:31:45.165Z,1004.79
2016-06-02T04:32:45.152Z,1004.81
2016-06-02T04:33:45.139Z,1004.77
2016-06-02T04:34:45.126Z,1004.83
2016-06-02T04:35:45.113Z,1004.82
2016-06-02T04:36:45.100Z,1004.79
2016-06-02T04:37:45.087Z,1004.79
2016-06-02T04:38:45.075Z,1004.78
2016-06-02T04:39:45.061Z,1004.83
2016-06-02T04:40:45.049Z,1004.81
2016-06-02T04:41:45.036Z,1004.85
2016-06-02T04:42:45.023Z,1004.86
2016-06-02T04:43:45.010Z,1004.88
2016-06-02T04:44:44.997Z,1004.86
2016-06-02T04:45:44.983Z,1004.9
2016-06-02T04:46:44.972Z,1004.85
2016-06-02T04:47:44.958Z,1004.88
2016-06-02T04:48:44.946Z,1004.87
2016-06-02T04:49:44.932Z,1004.91
2016-06-02T04:50:44.919Z,1004.93
2016-06-02T04:51:44.906Z,1004.88
2016-06-02T04:52:44.893Z,1004.89
2016-06-02T04:53:44.880Z,1004.91
2016-06-02T04:54:44.883Z,1004.88
2016-06-02T04:55:44.854Z,1004.9
2016-06-02T04:56:44.842Z,1004.89
2016-06-02T04:57:44.829Z,1004.91
2016-06-02T04:58:44.815Z,1004.95
2016-06-02T04:59:44.803Z,1004.93
2016-06-02T05:00:44.946Z,1004.95
2016-06-02T05:01:44.777Z,1005.01
2016-06-02T05:02:44.765Z,1005.03
2016-06-02T05:03:44.751Z,1004.99
2016-06-02T05:04:44.739Z,1004.98
2016-06-02T05:05:44.725Z,1005
2016-06-02T05:06:44.712Z,1004.97
2016-06-02T05:07:44.699Z,1004.97
2016-06-02T05:08:44.686Z,1005.04
2016-06-02T05:09:44.689Z,1005.01
2016-06-02T05:10:44.661Z,1005.06
2016-06-02T05:11:44.647Z,1005.03
2016-06-02T05:12:44.635Z,1005.04
2016-06-02T05:13:44.622Z,1005.06
2016-06-02T05:14:44.609Z,1005.01
2016-06-02T05:15:44.596Z,1005.07
2016-06-02T05:16:44.583Z,1005.06
2016-06-02T05:17:44.569Z,1005.11
2016-06-02T05:18:44.558Z,1005.1
2016-06-02T05:19:44.544Z,1005.1
2016-06-02T05:20:44.531Z,1005.1
2016-06-02T05:21:44.535Z,1005.13
2016-06-02T05:22:44.505Z,1005.1
2016-06-02T05:23:44.493Z,1005.11
2016-06-02T05:24:51.338Z,1005.1
2016-06-02T05:25:44.466Z,1005.11
2016-06-02T05:26:44.454Z,1005.09
2016-06-02T05:27:44.441Z,1005.12
2016-06-02T05:28:44.428Z,1005.15
2016-06-02T05:29:44.415Z,1005.14
2016-06-02T05:30:44.402Z,1005.12
2016-06-02T05:31:44.389Z,1005.18
2016-06-02T05:32:44.376Z,1005.15
2016-06-02T05:33:44.363Z,1005.15
2016-06-02T05:34:44.351Z,1005.19
2016-06-02T05:35:44.337Z,1005.14
2016-06-02T05:36:44.325Z,1005.18
2016-06-02T05:37:44.312Z,1005.17
2016-06-02T05:38:44.298Z,1005.16
2016-06-02T05:39:44.536Z,1005.18
2016-06-02T05:40:44.476Z,1005.17
2016-06-02T05:41:44.259Z,1005.21
2016-06-02T05:42:44.247Z,1005.19
2016-06-02T05:43:44.233Z,1005.16
2016-06-02T05:44:44.221Z,1005.19
2016-06-02T05:45:44.207Z,1005.17
2016-06-02T05:46:44.195Z,1005.15
2016-06-02T05:47:44.182Z,1005.18
2016-06-02T05:48:44.169Z,1005.16
2016-06-02T05:49:44.156Z,1005.2
2016-06-02T05:50:44.143Z,1005.16
2016-06-02T05:51:44.130Z,1005.21
2016-06-02T05:52:44.117Z,1005.18
2016-06-02T05:53:44.105Z,1005.2
2016-06-02T05:54:44.091Z,1005.22
2016-06-02T05:55:44.079Z,1005.22
2016-06-02T05:56:44.063Z,1005.2
2016-06-02T05:57:44.049Z,1005.23
2016-06-02T05:58:44.037Z,1005.23
2016-06-02T05:59:44.024Z,1005.18
2016-06-02T06:00:44.058Z,1005.15
2016-06-02T06:01:43.998Z,1005.24
2016-06-02T06:02:43.985Z,1005.23
2016-06-02T06:03:43.973Z,1005.24
2016-06-02T06:04:43.959Z,1005.23
2016-06-02T06:05:43.962Z,1005.2
2016-06-02T06:06:43.933Z,1005.25
2016-06-02T06:07:43.921Z,1005.27
2016-06-02T06:08:43.908Z,1005.24
2016-06-02T06:09:43.926Z,1005.24
2016-06-02T06:10:43.882Z,1005.28
2016-06-02T06:11:43.869Z,1005.29
2016-06-02T06:12:43.856Z,1005.33
2016-06-02T06:13:43.843Z,1005.3
2016-06-02T06:14:43.830Z,1005.28
2016-06-02T06:15:43.817Z,1005.31
2016-06-02T06:16:43.805Z,1005.33
2016-06-02T06:17:43.791Z,1005.34
2016-06-02T06:18:43.778Z,1005.35
2016-06-02T06:19:43.766Z,1005.3
2016-06-02T06:20:43.753Z,1005.34
2016-06-02T06:21:43.740Z,1005.36
2016-06-02T06:22:43.726Z,1005.37
2016-06-02T06:23:43.714Z,1005.33
2016-06-02T06:24:43.702Z,1005.38
2016-06-02T06:25:44.329Z,1005.4
2016-06-02T06:26:43.691Z,1005.4
2016-06-02T06:27:43.663Z,1005.37
2016-06-02T06:28:43.649Z,1005.37
2016-06-02T06:29:43.636Z,1005.4
2016-06-02T06:30:43.624Z,1005.39
2016-06-02T06:31:43.610Z,1005.42
2016-06-02T06:32:43.598Z,1005.42
2016-06-02T06:33:43.585Z,1005.41
2016-06-02T06:34:43.571Z,1005.41
2016-06-02T06:35:43.559Z,1005.46
2016-06-02T06:36:43.562Z,1005.47
2016-06-02T06:37:43.533Z,1005.47
2016-06-02T06:38:43.520Z,1005.41
2016-06-02T06:39:43.523Z,1005.48
2016-06-02T06:40:43.494Z,1005.48
2016-06-02T06:41:43.497Z,1005.5
2016-06-02T06:42:43.468Z,1005.49
2016-06-02T06:43:43.470Z,1005.46
2016-06-02T06:44:43.442Z,1005.42
2016-06-02T06:45:43.428Z,1005.41
2016-06-02T06:46:43.417Z,1005.48
2016-06-02T06:47:43.403Z,1005.45
2016-06-02T06:48:43.406Z,1005.53
2016-06-02T06:49:43.377Z,1005.48
2016-06-02T06:50:43.380Z,1005.49
2016-06-02T06:51:43.352Z,1005.53
2016-06-02T06:52:43.338Z,1005.56
2016-06-02T06:53:43.325Z,1005.54
2016-06-02T06:54:43.313Z,1005.55
2016-06-02T06:55:43.300Z,1005.55
2016-06-02T06:56:43.287Z,1005.53
2016-06-02T06:57:43.290Z,1005.52
2016-06-02T06:58:43.276Z,1005.53
2016-06-02T06:59:43.248Z,1005.51
2016-06-02T07:00:43.298Z,1005.5
2016-06-02T07:01:43.238Z,1005.51
2016-06-02T07:02:43.209Z,1005.51
2016-06-02T07:03:43.212Z,1005.47
2016-06-02T07:04:43.184Z,1005.54
2016-06-02T07:05:43.170Z,1005.53
2016-06-02T07:06:43.157Z,1005.51
2016-06-02T07:07:43.144Z,1005.53
2016-06-02T07:08:43.147Z,1005.55
2016-06-02T07:09:43.134Z,1005.54
2016-06-02T07:10:43.215Z,1005.59
2016-06-02T07:11:43.108Z,1005.52
2016-06-02T07:12:43.081Z,1005.54
2016-06-02T07:13:43.083Z,1005.55
2016-06-02T07:14:43.053Z,1005.52
2016-06-02T07:15:43.042Z,1005.55
2016-06-02T07:16:43.028Z,1005.51
2016-06-02T07:17:43.015Z,1005.52
2016-06-02T07:18:43.315Z,1005.51
2016-06-02T07:19:42.990Z,1005.54
2016-06-02T07:20:42.976Z,1005.49
2016-06-02T07:21:42.964Z,1005.56
2016-06-02T07:22:42.951Z,1005.52
2016-06-02T07:23:42.938Z,1005.55
2016-06-02T07:24:42.925Z,1005.52
2016-06-02T07:25:42.928Z,1005.55
2016-06-02T07:26:43.196Z,1005.59
2016-06-02T07:27:42.886Z,1005.54
2016-06-02T07:28:42.874Z,1005.54
2016-06-02T07:29:42.860Z,1005.54
2016-06-02T07:30:42.847Z,1005.55
2016-06-02T07:31:42.835Z,1005.5
2016-06-02T07:32:42.821Z,1005.55
2016-06-02T07:33:42.808Z,1005.47
2016-06-02T07:34:43.233Z,1005.55
2016-06-02T07:35:42.768Z,1005.43
2016-06-02T07:36:42.754Z,1005.47
2016-06-02T07:37:42.757Z,1005.48
2016-06-02T07:38:42.743Z,1005.5
2016-06-02T07:39:42.715Z,1005.47
2016-06-02T07:40:42.702Z,1005.45
2016-06-02T07:41:42.705Z,1005.52
2016-06-02T07:42:43.239Z,1005.48
2016-06-02T07:43:42.664Z,1005.51
2016-06-02T07:44:42.650Z,1005.49
2016-06-02T07:45:42.637Z,1005.45
2016-06-02T07:46:42.625Z,1005.5
2016-06-02T07:47:42.612Z,1005.46
2016-06-02T07:48:42.599Z,1005.52
2016-06-02T07:49:42.586Z,1005.56
2016-06-02T07:50:43.229Z,1005.53
2016-06-02T07:51:42.560Z,1005.5
2016-06-02T07:52:42.547Z,1005.52
2016-06-02T07:53:42.534Z,1005.5
2016-06-02T07:54:42.522Z,1005.51
2016-06-02T07:55:42.508Z,1005.52
2016-06-02T07:56:42.495Z,1005.56
2016-06-02T07:57:42.482Z,1005.51
2016-06-02T07:58:42.516Z,1005.52
2016-06-02T07:59:42.457Z,1005.5
2016-06-02T08:00:42.491Z,1005.51
2016-06-02T08:01:42.431Z,1005.56
2016-06-02T08:02:42.418Z,1005.59
2016-06-02T08:03:42.404Z,1005.59
2016-06-02T08:04:42.391Z,1005.52
2016-06-02T08:05:42.379Z,1005.58
2016-06-02T08:06:42.553Z,1005.58
2016-06-02T08:07:42.354Z,1005.59
2016-06-02T08:08:42.340Z,1005.6
2016-06-02T08:09:42.404Z,1005.61
2016-06-02T08:10:42.315Z,1005.57
2016-06-02T08:11:42.285Z,1005.59
2016-06-02T08:12:42.287Z,1005.6
2016-06-02T08:13:42.260Z,1005.61
2016-06-02T08:14:42.559Z,1005.63
2016-06-02T08:15:42.233Z,1005.62
2016-06-02T08:16:42.220Z,1005.59
2016-06-02T08:17:42.208Z,1005.59
2016-06-02T08:18:42.211Z,1005.67
2016-06-02T08:19:42.181Z,1005.62
2016-06-02T08:20:42.170Z,1005.68
2016-06-02T08:21:42.156Z,1005.66
2016-06-02T08:22:43.394Z,1005.67
2016-06-02T08:23:42.130Z,1005.68
2016-06-02T08:24:42.133Z,1005.63
2016-06-02T08:25:42.120Z,1005.66
2016-06-02T08:26:42.092Z,1005.63
2016-06-02T08:27:42.078Z,1005.63
2016-06-02T08:28:42.066Z,1005.63
2016-06-02T08:29:42.052Z,1005.61
2016-06-02T08:30:42.540Z,1005.58
2016-06-02T08:31:42.043Z,1005.6
2016-06-02T08:32:42.014Z,1005.59
2016-06-02T08:33:42.001Z,1005.57
2016-06-02T08:34:41.988Z,1005.55
2016-06-02T08:35:41.975Z,1005.53
2016-06-02T08:36:41.978Z,1005.55
2016-06-02T08:37:41.949Z,1005.56
2016-06-02T08:38:41.936Z,1005.53
2016-06-02T08:39:41.939Z,1005.58
2016-06-02T08:40:41.926Z,1005.59
2016-06-02T08:41:41.897Z,1005.58
2016-06-02T08:42:41.884Z,1005.58
2016-06-02T08:43:41.871Z,1005.58
2016-06-02T08:44:41.842Z,1005.61
2016-06-02T08:45:41.845Z,1005.55
2016-06-02T08:46:41.817Z,1005.58
2016-06-02T08:47:41.820Z,1005.55
2016-06-02T08:48:41.791Z,1005.56
2016-06-02T08:49:41.778Z,1005.57
2016-06-02T08:50:41.765Z,1005.56
2016-06-02T08:51:41.752Z,1005.59
2016-06-02T08:52:41.740Z,1005.55
2016-06-02T08:53:41.727Z,1005.55
2016-06-02T08:54:41.714Z,1005.61
2016-06-02T08:55:41.716Z,1005.58
2016-06-02T08:56:41.688Z,1005.53
2016-06-02T08:57:41.690Z,1005.56
2016-06-02T08:58:41.661Z,1005.54
2016-06-02T08:59:41.649Z,1005.6
2016-06-02T09:00:41.636Z,1005.6
2016-06-02T09:01:41.624Z,1005.63
2016-06-02T09:02:41.610Z,1005.61
2016-06-02T09:03:41.597Z,1005.58
2016-06-02T09:04:41.584Z,1005.54
2016-06-02T09:05:41.572Z,1005.55
2016-06-02T09:06:41.558Z,1005.53
2016-06-02T09:07:41.546Z,1005.53
2016-06-02T09:08:41.533Z,1005.53
2016-06-02T09:09:41.520Z,1005.55
2016-06-02T09:10:41.507Z,1005.56
2016-06-02T09:11:41.494Z,1005.57
2016-06-02T09:12:41.481Z,1005.5
2016-06-02T09:13:41.467Z,1005.55
2016-06-02T09:14:41.454Z,1005.51
2016-06-02T09:15:41.443Z,1005.56
2016-06-02T09:16:41.429Z,1005.58
2016-06-02T09:17:41.417Z,1005.47
2016-06-02T09:18:41.403Z,1005.47
2016-06-02T09:19:41.390Z,1005.43
2016-06-02T09:20:41.378Z,1005.46
2016-06-02T09:21:41.364Z,1005.46
2016-06-02T09:22:41.368Z,1005.44
2016-06-02T09:23:41.339Z,1005.41
2016-06-02T09:24:42.123Z,1005.41
2016-06-02T09:25:41.313Z,1005.46
2016-06-02T09:26:41.299Z,1005.39
2016-06-02T09:27:41.287Z,1005.42
2016-06-02T09:28:41.275Z,1005.43
2016-06-02T09:29:41.261Z,1005.43
2016-06-02T09:30:41.248Z,1005.46
2016-06-02T09:31:41.235Z,1005.43
2016-06-02T09:32:41.222Z,1005.43
2016-06-02T09:33:41.210Z,1005.4
2016-06-02T09:34:41.196Z,1005.42
2016-06-02T09:35:41.183Z,1005.44
2016-06-02T09:36:41.171Z,1005.45
2016-06-02T09:37:41.158Z,1005.47
2016-06-02T09:38:41.144Z,1005.42
2016-06-02T09:39:41.132Z,1005.46
2016-06-02T09:40:41.118Z,1005.46
2016-06-02T09:41:41.107Z,1005.51
2016-06-02T09:42:41.093Z,1005.43
2016-06-02T09:43:41.080Z,1005.47
2016-06-02T09:44:41.067Z,1005.43
2016-06-02T09:45:41.054Z,1005.44
2016-06-02T09:46:41.040Z,1005.44
2016-06-02T09:47:41.029Z,1005.47
2016-06-02T09:48:41.015Z,1005.5
2016-06-02T09:49:41.003Z,1005.45
2016-06-02T09:50:40.990Z,1005.48
2016-06-02T09:51:40.976Z,1005.51
2016-06-02T09:52:40.964Z,1005.52
2016-06-02T09:53:40.966Z,1005.56
2016-06-02T09:54:41.704Z,1005.55
2016-06-02T09:55:41.347Z,1005.53
2016-06-02T09:56:40.912Z,1005.49
2016-06-02T09:57:40.899Z,1005.51
2016-06-02T09:58:40.886Z,1005.54
2016-06-02T09:59:40.873Z,1005.55
2016-06-02T10:00:40.861Z,1005.51
2016-06-02T10:01:40.847Z,1005.53
2016-06-02T10:02:40.834Z,1005.52
2016-06-02T10:03:40.822Z,1005.53
2016-06-02T10:04:40.808Z,1005.54
2016-06-02T10:05:40.796Z,1005.53
2016-06-02T10:06:40.783Z,1005.48
2016-06-02T10:07:40.769Z,1005.49
2016-06-02T10:08:40.757Z,1005.53
2016-06-02T10:09:40.743Z,1005.55
2016-06-02T10:10:40.731Z,1005.52
2016-06-02T10:11:40.733Z,1005.52
2016-06-02T10:12:40.704Z,1005.47
2016-06-02T10:13:40.692Z,1005.51
2016-06-02T10:14:40.679Z,1005.49
2016-06-02T10:15:40.666Z,1005.51
2016-06-02T10:16:40.653Z,1005.49
2016-06-02T10:17:40.640Z,1005.5
2016-06-02T10:18:40.626Z,1005.49
2016-06-02T10:19:40.615Z,1005.46
2016-06-02T10:20:40.601Z,1005.46
2016-06-02T10:21:40.589Z,1005.46
2016-06-02T10:22:40.576Z,1005.43
2016-06-02T10:23:40.579Z,1005.43
2016-06-02T10:24:40.550Z,1005.45
2016-06-02T10:25:40.631Z,1005.41
2016-06-02T10:26:40.523Z,1005.41
2016-06-02T10:27:40.512Z,1005.42
2016-06-02T10:28:40.497Z,1005.44
2016-06-02T10:29:40.486Z,1005.37
2016-06-02T10:30:40.472Z,1005.44
2016-06-02T10:31:40.459Z,1005.38
2016-06-02T10:32:40.446Z,1005.38
2016-06-02T10:33:40.433Z,1005.41
2016-06-02T10:34:40.420Z,1005.39
2016-06-02T10:35:40.408Z,1005.4
2016-06-02T10:36:40.394Z,1005.37
2016-06-02T10:37:40.397Z,1005.35
2016-06-02T10:38:40.369Z,1005.38
2016-06-02T10:39:40.355Z,1005.4
2016-06-02T10:40:41.124Z,1005.33
2016-06-02T10:41:40.345Z,1005.38
2016-06-02T10:42:40.332Z,1005.37
2016-06-02T10:43:40.304Z,1005.39
2016-06-02T10:44:40.307Z,1005.34
2016-06-02T10:45:40.293Z,1005.38
2016-06-02T10:46:40.281Z,1005.32
2016-06-02T10:47:40.268Z,1005.3
2016-06-02T10:48:40.255Z,1005.26
2016-06-02T10:49:40.242Z,1005.25
2016-06-02T10:50:40.229Z,1005.26
2016-06-02T10:51:40.232Z,1005.25
2016-06-02T10:52:40.204Z,1005.27
2016-06-02T10:53:40.190Z,1005.21
2016-06-02T10:54:40.178Z,1005.27
2016-06-02T10:55:40.164Z,1005.22
2016-06-02T10:56:40.151Z,1005.21
2016-06-02T10:57:40.138Z,1005.2
2016-06-02T10:58:40.126Z,1005.17
2016-06-02T10:59:40.112Z,1005.13
2016-06-02T11:00:40.100Z,1005.17
2016-06-02T11:01:40.086Z,1005.16
2016-06-02T11:02:40.074Z,1005.11
2016-06-02T11:03:40.061Z,1005.14
2016-06-02T11:04:40.048Z,1005.16
2016-06-02T11:05:40.035Z,1005.12
2016-06-02T11:06:40.022Z,1005.09
2016-06-02T11:07:40.009Z,1005.11
2016-06-02T11:08:39.997Z,1005.11
2016-06-02T11:09:41.155Z,1005.06
2016-06-02T11:10:39.970Z,1005.07
2016-06-02T11:11:39.957Z,1005.06
2016-06-02T11:12:39.944Z,1005.04
2016-06-02T11:13:39.931Z,1005.04
2016-06-02T11:14:39.919Z,1005.04
2016-06-02T11:15:39.921Z,1005.03
2016-06-02T11:16:39.893Z,1005.02
2016-06-02T11:17:39.880Z,1004.99
2016-06-02T11:18:39.868Z,1004.97
2016-06-02T11:19:39.854Z,1004.98
2016-06-02T11:20:39.840Z,1004.99
2016-06-02T11:21:39.828Z,1004.98
2016-06-02T11:22:39.815Z,1004.94
2016-06-02T11:23:39.818Z,1004.86
2016-06-02T11:24:40.242Z,1004.87
2016-06-02T11:25:39.776Z,1004.83
2016-06-02T11:26:39.763Z,1004.79
2016-06-02T11:27:39.766Z,1004.8
2016-06-02T11:28:39.769Z,1004.8
2016-06-02T11:29:39.740Z,1004.8
2016-06-02T11:30:39.712Z,1004.79
2016-06-02T11:31:39.714Z,1004.79
2016-06-02T11:32:39.685Z,1004.79
2016-06-02T11:33:39.689Z,1004.78
2016-06-02T11:34:39.675Z,1004.78
2016-06-02T11:35:39.663Z,1004.79
2016-06-02T11:36:39.650Z,1004.82
2016-06-02T11:37:39.636Z,1004.77
2016-06-02T11:38:39.624Z,1004.8
2016-06-02T11:39:39.642Z,1004.77
2016-06-02T11:40:39.597Z,1004.78
2016-06-02T11:41:39.632Z,1004.75
2016-06-02T11:42:39.572Z,1004.74
2016-06-02T11:43:39.560Z,1004.7
2016-06-02T11:44:39.546Z,1004.74
2016-06-02T11:45:39.533Z,1004.7
2016-06-02T11:46:39.521Z,1004.65
2016-06-02T11:47:39.507Z,1004.65
2016-06-02T11:48:39.494Z,1004.57
2016-06-02T11:49:39.481Z,1004.52
2016-06-02T11:50:39.468Z,1004.56
2016-06-02T11:51:39.456Z,1004.51
2016-06-02T11:52:39.443Z,1004.54
2016-06-02T11:53:39.430Z,1004.51
2016-06-02T11:54:39.432Z,1004.54
2016-06-02T11:55:39.404Z,1004.53
2016-06-02T11:56:39.391Z,1004.55
2016-06-02T11:57:39.487Z,1004.52
2016-06-02T11:58:39.365Z,1004.56
2016-06-02T11:59:39.477Z,1004.5
2016-06-02T12:00:39.356Z,1004.51
2016-06-02T12:01:39.326Z,1004.42
2016-06-02T12:02:39.314Z,1004.4
2016-06-02T12:03:39.316Z,1004.36
2016-06-02T12:04:39.287Z,1004.34
2016-06-02T12:05:39.539Z,1004.32
2016-06-02T12:06:39.277Z,1004.3
2016-06-02T12:07:39.264Z,1004.33
2016-06-02T12:08:39.252Z,1004.29